createdAt,value
2018-12-29T00:00:09.737Z,16.80
2018-12-29T00:01:16.512Z,15.80
2018-12-29T00:02:23.772Z,16.60
2018-12-29T00:03:30.553Z,17.00
2018-12-29T00:04:37.352Z,15.50
2018-12-29T00:05:44.085Z,15.10
2018-12-29T00:06:50.857Z,16.30
2018-12-29T00:07:57.505Z,15.70
2018-12-29T00:09:04.772Z,17.10
2018-12-29T00:10:11.404Z,17.20
2018-12-29T00:11:18.613Z,16.80
2018-12-29T00:12:25.393Z,16.50
2018-12-29T00:13:32.146Z,17.30
2018-12-29T00:14:38.937Z,16.10
2018-12-29T00:15:45.672Z,14.90
2018-12-29T00:16:52.442Z,16.20
2018-12-29T00:17:59.219Z,15.90
2018-12-29T00:19:05.941Z,17.50
2018-12-29T00:20:12.663Z,14.90
2018-12-29T00:21:19.340Z,16.60
2018-12-29T00:22:26.567Z,17.00
2018-12-29T00:23:33.760Z,16.50
2018-12-29T00:24:40.492Z,15.90
2018-12-29T00:25:47.572Z,16.50
2018-12-29T00:26:54.827Z,16.40
2018-12-29T00:28:01.434Z,16.50
2018-12-29T00:29:08.607Z,16.40
2018-12-29T00:30:15.800Z,16.40
2018-12-29T00:31:22.547Z,16.80
2018-12-29T00:32:29.194Z,17.50
2018-12-29T00:33:36.097Z,16.00
2018-12-29T00:34:42.722Z,16.20
2018-12-29T00:35:49.916Z,16.50
2018-12-29T00:36:56.685Z,16.50
2018-12-29T00:38:03.566Z,15.60
2018-12-29T00:39:10.307Z,16.10
2018-12-29T00:40:17.012Z,16.10
2018-12-29T00:41:23.722Z,17.30
2018-12-29T00:42:30.389Z,16.60
2018-12-29T00:43:37.585Z,16.60
2018-12-29T00:44:44.138Z,17.10
2018-12-29T00:45:51.435Z,16.20
2018-12-29T00:46:58.073Z,16.40
2018-12-29T00:48:05.347Z,15.90
2018-12-29T00:49:12.005Z,17.50
2018-12-29T00:50:19.152Z,18.50
2018-12-29T00:51:26.261Z,16.80
2018-12-29T00:52:33.438Z,15.90
2018-12-29T00:53:40.089Z,16.50
2018-12-29T00:54:47.263Z,16.40
2018-12-29T00:55:54.064Z,16.40
2018-12-29T00:57:00.698Z,16.40
2018-12-29T00:58:07.956Z,17.40
2018-12-29T00:59:14.539Z,16.70
2018-12-29T01:00:21.720Z,15.50
2018-12-29T01:01:28.682Z,16.50
2018-12-29T01:02:35.440Z,16.50
2018-12-29T01:03:42.024Z,16.50
2018-12-29T01:04:49.148Z,16.30
2018-12-29T01:05:56.314Z,16.20
2018-12-29T01:07:02.917Z,16.70
2018-12-29T01:08:10.097Z,17.10
2018-12-29T01:09:17.271Z,16.50
2018-12-29T01:10:24.089Z,17.50
2018-12-29T01:11:30.993Z,17.40
2018-12-29T01:12:37.688Z,16.20
2018-12-29T01:13:44.435Z,16.20
2018-12-29T01:14:51.201Z,16.20
2018-12-29T01:15:57.876Z,16.40
2018-12-29T01:17:05.095Z,16.70
2018-12-29T01:18:11.640Z,16.50
2018-12-29T01:19:18.869Z,15.30
2018-12-29T01:20:25.525Z,16.50
2018-12-29T01:21:32.583Z,18.20
2018-12-29T01:22:39.830Z,15.90
2018-12-29T01:23:46.400Z,16.00
2018-12-29T01:24:53.612Z,15.90
2018-12-29T01:26:00.292Z,16.20
2018-12-29T01:27:07.047Z,15.30
2018-12-29T01:28:13.692Z,16.80
2018-12-29T01:29:20.969Z,16.20
2018-12-29T01:30:27.665Z,15.70
2018-12-29T01:31:34.869Z,15.30
2018-12-29T01:32:41.612Z,16.00
2018-12-29T01:33:48.262Z,15.40
2018-12-29T01:34:55.516Z,15.60
2018-12-29T01:36:02.201Z,15.50
2018-12-29T01:37:09.468Z,16.50
2018-12-29T01:38:16.248Z,15.20
2018-12-29T01:39:22.980Z,15.80
2018-12-29T01:40:29.780Z,16.70
2018-12-29T01:41:36.540Z,16.20
2018-12-29T01:42:43.186Z,15.80
2018-12-29T01:43:50.461Z,14.80
2018-12-29T01:44:57.125Z,15.20
2018-12-29T01:46:04.403Z,15.50
2018-12-29T01:47:10.990Z,15.50
2018-12-29T01:48:18.068Z,15.70
2018-12-29T01:49:25.292Z,14.80
2018-12-29T01:50:31.796Z,16.00
2018-12-29T01:51:38.982Z,15.50
2018-12-29T01:52:46.037Z,15.10
2018-12-29T01:53:53.203Z,14.70
2018-12-29T01:55:00.506Z,15.40
2018-12-29T01:56:07.337Z,14.90
2018-12-29T01:57:13.928Z,15.50
2018-12-29T01:58:21.476Z,15.30
2018-12-29T01:59:28.244Z,15.10
2018-12-29T02:00:34.884Z,14.60
2018-12-29T02:01:42.001Z,14.90
2018-12-29T02:02:49.276Z,15.20
2018-12-29T02:03:56.466Z,13.80
2018-12-29T02:05:03.093Z,15.70
2018-12-29T02:06:10.268Z,14.80
2018-12-29T02:07:17.397Z,14.20
2018-12-29T02:08:24.607Z,14.90
2018-12-29T02:09:31.264Z,15.20
2018-12-29T02:10:38.480Z,14.90
2018-12-29T02:11:45.085Z,14.40
2018-12-29T02:12:52.312Z,14.30
2018-12-29T02:13:59.073Z,15.60
2018-12-29T02:15:05.780Z,15.50
2018-12-29T02:16:12.476Z,15.40
2018-12-29T02:17:19.945Z,15.30
2018-12-29T02:18:26.536Z,15.20
2018-12-29T02:19:33.695Z,14.50
2018-12-29T02:20:40.880Z,14.70
2018-12-29T02:21:47.529Z,15.10
2018-12-29T02:22:54.721Z,15.40
2018-12-29T02:24:01.348Z,15.70
2018-12-29T02:25:08.173Z,14.60
2018-12-29T02:26:14.796Z,15.00
2018-12-29T02:27:21.979Z,15.90
2018-12-29T02:28:28.540Z,15.30
2018-12-29T02:29:35.819Z,14.60
2018-12-29T02:30:42.477Z,15.60
2018-12-29T02:31:49.662Z,13.80
2018-12-29T02:32:56.438Z,14.20
2018-12-29T02:34:03.045Z,14.70
2018-12-29T02:35:10.155Z,13.60
2018-12-29T02:36:17.228Z,14.50
2018-12-29T02:37:24.500Z,14.60
2018-12-29T02:38:31.177Z,13.70
2018-12-29T02:39:38.430Z,13.90
2018-12-29T02:40:44.973Z,13.40
2018-12-29T02:41:52.284Z,13.40
2018-12-29T02:42:58.937Z,15.60
2018-12-29T02:44:06.145Z,14.10
2018-12-29T02:45:12.777Z,14.60
2018-12-29T02:46:20.057Z,13.10
2018-12-29T02:47:27.007Z,14.10
2018-12-29T02:48:33.715Z,13.90
2018-12-29T02:49:40.363Z,14.50
2018-12-29T02:50:47.536Z,13.90
2018-12-29T02:51:54.198Z,13.70
2018-12-29T02:53:01.246Z,12.90
2018-12-29T02:54:08.562Z,13.20
2018-12-29T02:55:15.289Z,13.80
2018-12-29T02:56:22.102Z,14.60
2018-12-29T02:57:28.726Z,12.30
2018-12-29T02:58:36.019Z,13.60
2018-12-29T02:59:42.708Z,13.30
2018-12-29T03:00:49.899Z,13.30
2018-12-29T03:01:56.577Z,13.40
2018-12-29T03:03:03.651Z,11.80
2018-12-29T03:04:10.813Z,13.10
2018-12-29T03:05:17.921Z,13.40
2018-12-29T03:06:25.091Z,13.10
2018-12-29T03:07:31.780Z,13.90
2018-12-29T03:08:39.064Z,12.70
2018-12-29T03:09:45.705Z,13.00
2018-12-29T03:10:52.965Z,12.80
2018-12-29T03:11:59.484Z,13.20
2018-12-29T03:13:06.816Z,13.70
2018-12-29T03:14:13.510Z,14.10
2018-12-29T03:15:20.127Z,13.90
2018-12-29T03:16:27.278Z,14.50
2018-12-29T03:17:34.490Z,13.10
2018-12-29T03:18:41.163Z,13.80
2018-12-29T03:19:48.253Z,13.40
2018-12-29T03:20:55.510Z,13.40
2018-12-29T03:22:02.111Z,13.70
2018-12-29T03:23:09.149Z,13.40
2018-12-29T03:24:16.337Z,13.40
2018-12-29T03:25:23.044Z,14.20
2018-12-29T03:26:29.742Z,13.30
2018-12-29T03:27:36.595Z,14.40
2018-12-29T03:28:43.272Z,13.00
2018-12-29T03:29:50.057Z,13.90
2018-12-29T03:30:56.618Z,13.00
2018-12-29T03:32:03.760Z,13.20
2018-12-29T03:33:10.850Z,13.50
2018-12-29T03:34:18.018Z,14.60
2018-12-29T03:35:25.193Z,14.00
2018-12-29T03:36:31.759Z,13.30
2018-12-29T03:37:38.921Z,14.10
2018-12-29T03:38:45.597Z,13.20
2018-12-29T03:39:52.787Z,13.10
2018-12-29T03:40:59.384Z,14.00
2018-12-29T03:42:06.696Z,13.20
2018-12-29T03:43:13.357Z,13.70
2018-12-29T03:44:20.607Z,12.70
2018-12-29T03:45:27.196Z,13.70
2018-12-29T03:46:34.277Z,13.80
2018-12-29T03:47:41.449Z,12.90
2018-12-29T03:48:48.534Z,14.00
2018-12-29T03:49:55.710Z,13.40
2018-12-29T03:51:02.966Z,14.20
2018-12-29T03:52:09.734Z,14.10
2018-12-29T03:53:16.509Z,14.80
2018-12-29T03:54:23.345Z,13.10
2018-12-29T03:55:29.982Z,12.70
2018-12-29T03:56:37.207Z,14.40
2018-12-29T03:57:43.970Z,13.00
2018-12-29T03:58:50.616Z,12.60
2018-12-29T03:59:57.329Z,13.70
2018-12-29T04:01:04.155Z,15.10
2018-12-29T04:02:10.696Z,13.40
2018-12-29T04:03:17.903Z,15.20
2018-12-29T04:04:24.560Z,14.40
2018-12-29T04:05:31.667Z,14.10
2018-12-29T04:06:38.931Z,13.90
2018-12-29T04:07:45.579Z,14.10
2018-12-29T04:08:52.850Z,14.50
2018-12-29T04:09:59.718Z,12.80
2018-12-29T04:11:06.514Z,14.60
2018-12-29T04:12:13.057Z,13.40
2018-12-29T04:13:19.917Z,15.10
2018-12-29T04:14:26.796Z,14.40
2018-12-29T04:15:33.377Z,14.40
2018-12-29T04:16:40.524Z,13.60
2018-12-29T04:17:47.689Z,13.70
2018-12-29T04:18:54.869Z,13.70
2018-12-29T04:20:01.974Z,14.70
2018-12-29T04:21:08.620Z,15.00
2018-12-29T04:22:15.766Z,14.40
2018-12-29T04:23:23.071Z,15.60
2018-12-29T04:24:29.720Z,14.70
2018-12-29T04:25:36.500Z,13.50
2018-12-29T04:26:43.041Z,14.60
2018-12-29T04:27:50.315Z,14.50
2018-12-29T04:28:57.084Z,15.30
2018-12-29T04:30:04.248Z,13.70
2018-12-29T04:31:10.951Z,13.60
2018-12-29T04:32:18.093Z,14.60
2018-12-29T04:33:25.385Z,14.50
2018-12-29T04:34:32.037Z,14.20
2018-12-29T04:35:38.820Z,14.80
2018-12-29T04:36:45.361Z,14.20
2018-12-29T04:37:52.540Z,14.80
2018-12-29T04:38:59.088Z,13.70
2018-12-29T04:40:06.373Z,14.40
2018-12-29T04:41:13.149Z,14.90
2018-12-29T04:42:20.541Z,15.40
2018-12-29T04:43:27.284Z,14.40
2018-12-29T04:44:33.952Z,14.60
2018-12-29T04:45:41.035Z,14.40
2018-12-29T04:46:47.603Z,14.20
2018-12-29T04:47:54.848Z,14.80
2018-12-29T04:49:01.612Z,14.00
2018-12-29T04:50:08.275Z,14.80
2018-12-29T04:51:15.381Z,14.70
2018-12-29T04:52:22.552Z,15.40
2018-12-29T04:53:29.276Z,14.40
2018-12-29T04:54:36.060Z,13.60
2018-12-29T04:55:42.721Z,14.50
2018-12-29T04:56:49.950Z,14.50
2018-12-29T04:57:56.757Z,14.90
2018-12-29T04:59:03.470Z,14.40
2018-12-29T05:00:10.804Z,14.50
2018-12-29T05:01:17.484Z,15.30
2018-12-29T05:02:24.977Z,15.00
2018-12-29T05:03:31.813Z,14.00
2018-12-29T05:04:38.572Z,14.70
2018-12-29T05:05:45.208Z,15.70
2018-12-29T05:06:52.384Z,14.00
2018-12-29T05:07:58.964Z,14.90
2018-12-29T05:09:06.145Z,14.10
2018-12-29T05:10:12.930Z,15.20
2018-12-29T05:11:19.670Z,13.90
2018-12-29T05:12:26.453Z,14.90
2018-12-29T05:13:33.544Z,15.40
2018-12-29T05:14:40.803Z,14.80
2018-12-29T05:15:47.546Z,15.30
2018-12-29T05:16:54.228Z,15.30
2018-12-29T05:18:00.888Z,15.40
2018-12-29T05:19:08.164Z,13.80
2018-12-29T05:20:14.841Z,14.90
2018-12-29T05:21:22.100Z,13.60
2018-12-29T05:22:28.772Z,14.10
2018-12-29T05:23:35.532Z,14.70
2018-12-29T05:24:42.106Z,15.30
2018-12-29T05:25:49.387Z,14.90
2018-12-29T05:26:56.063Z,14.30
2018-12-29T05:28:02.888Z,14.50
2018-12-29T05:29:09.564Z,14.70
2018-12-29T05:30:16.214Z,15.20
2018-12-29T05:31:23.512Z,14.80
2018-12-29T05:32:30.273Z,14.90
2018-12-29T05:33:37.126Z,14.60
2018-12-29T05:34:43.792Z,14.60
2018-12-29T05:35:51.011Z,14.60
2018-12-29T05:36:57.721Z,14.30
2018-12-29T05:38:04.519Z,15.00
2018-12-29T05:39:11.089Z,14.90
2018-12-29T05:40:18.301Z,14.80
2018-12-29T05:41:24.955Z,14.20
2018-12-29T05:42:32.093Z,14.60
2018-12-29T05:43:39.252Z,14.60
2018-12-29T05:44:45.920Z,13.80
2018-12-29T05:45:53.184Z,15.40
2018-12-29T05:46:59.752Z,14.70
2018-12-29T05:48:07.036Z,14.50
2018-12-29T05:49:13.684Z,14.80
2018-12-29T05:50:20.959Z,16.00
2018-12-29T05:51:27.617Z,15.50
2018-12-29T05:52:34.924Z,15.90
2018-12-29T05:53:41.667Z,15.70
2018-12-29T05:54:48.254Z,15.50
2018-12-29T05:55:55.381Z,14.70
2018-12-29T05:57:02.581Z,14.60
2018-12-29T05:58:09.248Z,14.60
2018-12-29T05:59:16.001Z,15.00
2018-12-29T06:00:22.764Z,15.40
2018-12-29T06:01:29.432Z,15.50
2018-12-29T06:02:36.197Z,15.50
2018-12-29T06:03:42.869Z,16.00
2018-12-29T06:04:50.059Z,14.80
2018-12-29T06:05:56.631Z,15.30
2018-12-29T06:07:03.879Z,14.30
2018-12-29T06:08:10.652Z,15.40
2018-12-29T06:09:17.309Z,15.80
2018-12-29T06:10:24.473Z,15.20
2018-12-29T06:11:31.645Z,14.80
2018-12-29T06:12:38.352Z,15.00
2018-12-29T06:13:44.986Z,15.70
2018-12-29T06:14:52.248Z,15.30
2018-12-29T06:15:58.860Z,15.90
2018-12-29T06:17:06.177Z,14.70
2018-12-29T06:18:12.880Z,15.00
2018-12-29T06:19:20.128Z,15.20
2018-12-29T06:20:26.789Z,14.80
2018-12-29T06:21:33.452Z,16.10
2018-12-29T06:22:40.929Z,15.80
2018-12-29T06:23:47.515Z,14.90
2018-12-29T06:24:54.772Z,15.30
2018-12-29T06:26:01.404Z,16.20
2018-12-29T06:27:08.605Z,15.00
2018-12-29T06:28:15.285Z,14.80
2018-12-29T06:29:22.052Z,15.20
2018-12-29T06:30:28.704Z,14.30
2018-12-29T06:31:35.971Z,14.10
2018-12-29T06:32:42.652Z,15.00
2018-12-29T06:33:49.802Z,15.20
2018-12-29T06:34:56.476Z,15.30
2018-12-29T06:36:03.252Z,14.70
2018-12-29T06:37:09.802Z,14.80
2018-12-29T06:38:16.993Z,14.90
2018-12-29T06:39:23.765Z,16.40
2018-12-29T06:40:30.512Z,14.70
2018-12-29T06:41:37.261Z,15.70
2018-12-29T06:42:43.934Z,14.70
2018-12-29T06:43:50.805Z,15.00
2018-12-29T06:44:57.789Z,15.10
2018-12-29T06:46:05.004Z,14.90
2018-12-29T06:47:11.614Z,15.00
2018-12-29T06:48:18.829Z,15.10
2018-12-29T06:49:25.611Z,15.80
2018-12-29T06:50:32.311Z,15.80
2018-12-29T06:51:39.602Z,14.50
2018-12-29T06:52:46.433Z,15.50
2018-12-29T06:53:53.507Z,14.80
2018-12-29T06:54:59.893Z,16.00
2018-12-29T06:56:07.082Z,14.40
2018-12-29T06:57:13.887Z,14.80
2018-12-29T06:58:21.156Z,16.00
2018-12-29T06:59:27.728Z,15.30
2018-12-29T07:00:34.964Z,15.30
2018-12-29T07:01:41.696Z,15.40
2018-12-29T07:02:48.368Z,14.30
2018-12-29T07:03:55.465Z,16.10
2018-12-29T07:05:02.800Z,14.00
2018-12-29T07:06:09.914Z,15.40
2018-12-29T07:07:16.548Z,14.70
2018-12-29T07:08:23.733Z,15.80
2018-12-29T07:09:30.407Z,14.80
2018-12-29T07:10:37.516Z,14.90
2018-12-29T07:11:44.735Z,15.30
2018-12-29T07:12:51.917Z,14.80
2018-12-29T07:13:58.550Z,16.00
2018-12-29T07:15:05.772Z,20.50
2018-12-29T07:16:12.437Z,19.30
2018-12-29T07:17:19.605Z,20.30
2018-12-29T07:18:26.672Z,18.70
2018-12-29T07:19:33.788Z,16.80
2018-12-29T07:20:40.936Z,16.20
2018-12-29T07:21:47.686Z,15.20
2018-12-29T07:22:54.435Z,15.20
2018-12-29T07:24:01.105Z,16.30
2018-12-29T07:25:08.330Z,15.40
2018-12-29T07:26:15.072Z,15.60
2018-12-29T07:27:21.812Z,15.70
2018-12-29T07:28:28.388Z,14.70
2018-12-29T07:29:38.396Z,16.20
2018-12-29T07:30:42.523Z,15.30
2018-12-29T07:31:49.292Z,15.10
2018-12-29T07:32:56.133Z,15.50
2018-12-29T07:34:02.717Z,15.40
2018-12-29T07:35:09.992Z,15.00
2018-12-29T07:36:16.669Z,16.30
2018-12-29T07:37:23.938Z,15.90
2018-12-29T07:38:30.586Z,15.50
2018-12-29T07:39:37.880Z,17.10
2018-12-29T07:40:44.565Z,18.00
2018-12-29T07:41:51.266Z,15.60
2018-12-29T07:42:58.462Z,17.10
2018-12-29T07:44:05.320Z,16.60
2018-12-29T07:45:12.029Z,15.80
2018-12-29T07:46:18.628Z,15.60
2018-12-29T07:47:25.794Z,15.60
2018-12-29T07:48:32.501Z,15.90
2018-12-29T07:49:39.245Z,15.90
2018-12-29T07:50:45.859Z,16.20
2018-12-29T07:51:53.112Z,15.00
2018-12-29T07:52:59.859Z,16.50
2018-12-29T07:54:06.328Z,15.70
2018-12-29T07:55:13.433Z,15.80
2018-12-29T07:56:20.688Z,15.70
2018-12-29T07:57:27.640Z,16.60
2018-12-29T07:58:34.201Z,15.90
2018-12-29T07:59:41.364Z,18.00
2018-12-29T08:00:48.437Z,15.80
2018-12-29T08:01:55.633Z,16.80
2018-12-29T08:03:02.385Z,17.50
2018-12-29T08:04:09.145Z,16.60
2018-12-29T08:05:16.031Z,16.30
2018-12-29T08:06:22.727Z,15.90
2018-12-29T08:07:29.328Z,15.80
2018-12-29T08:08:36.614Z,15.70
2018-12-29T08:09:43.381Z,15.90
2018-12-29T08:10:50.257Z,16.80
2018-12-29T08:11:56.920Z,15.50
2018-12-29T08:13:05.223Z,19.20
2018-12-29T08:14:10.964Z,17.90
2018-12-29T08:15:17.816Z,20.80
2018-12-29T08:16:24.596Z,20.00
2018-12-29T08:17:31.296Z,18.60
2018-12-29T08:18:38.035Z,16.60
2018-12-29T08:19:44.771Z,15.90
2018-12-29T08:20:51.560Z,17.00
2018-12-29T08:21:58.229Z,15.60
2018-12-29T08:23:04.984Z,16.10
2018-12-29T08:24:11.551Z,16.20
2018-12-29T08:25:18.708Z,15.90
2018-12-29T08:26:25.467Z,16.70
2018-12-29T08:27:32.266Z,14.90
2018-12-29T08:28:39.000Z,17.60
2018-12-29T08:29:45.615Z,17.00
2018-12-29T08:30:52.820Z,17.30
2018-12-29T08:31:59.453Z,16.70
2018-12-29T08:33:06.278Z,16.60
2018-12-29T08:34:13.048Z,17.20
2018-12-29T08:35:19.699Z,16.90
2018-12-29T08:36:26.831Z,17.10
2018-12-29T08:37:33.948Z,17.00
2018-12-29T08:38:41.021Z,16.80
2018-12-29T08:39:48.186Z,16.70
2018-12-29T08:40:55.465Z,16.20
2018-12-29T08:42:02.161Z,16.80
2018-12-29T08:43:08.719Z,17.00
2018-12-29T08:44:15.840Z,17.20
2018-12-29T08:45:23.148Z,16.70
2018-12-29T08:46:29.816Z,16.00
2018-12-29T08:47:37.092Z,15.50
2018-12-29T08:48:43.668Z,16.70
2018-12-29T08:49:50.848Z,15.80
2018-12-29T08:50:57.589Z,17.30
2018-12-29T08:52:04.557Z,17.90
2018-12-29T08:53:11.233Z,17.80
2018-12-29T08:54:17.879Z,17.20
2018-12-29T08:55:25.252Z,18.00
2018-12-29T08:56:31.933Z,16.90
2018-12-29T08:57:39.225Z,15.90
2018-12-29T08:58:45.811Z,17.50
2018-12-29T08:59:52.928Z,17.30
2018-12-29T09:01:00.109Z,14.80
2018-12-29T09:02:07.398Z,16.70
2018-12-29T09:03:14.064Z,15.90
2018-12-29T09:04:21.413Z,15.60
2018-12-29T09:05:28.102Z,15.80
2018-12-29T09:06:34.749Z,17.30
2018-12-29T09:07:42.040Z,18.10
2018-12-29T09:08:48.796Z,17.80
2018-12-29T09:09:55.885Z,17.70
2018-12-29T09:11:03.061Z,17.20
2018-12-29T09:12:10.200Z,17.10
2018-12-29T09:13:17.299Z,16.40
2018-12-29T09:14:24.552Z,17.50
2018-12-29T09:15:31.233Z,16.80
2018-12-29T09:16:37.984Z,16.90
2018-12-29T09:17:44.775Z,16.60
2018-12-29T09:18:51.469Z,15.90
2018-12-29T09:19:57.976Z,17.50
2018-12-29T09:21:05.171Z,16.00
2018-12-29T09:22:11.801Z,16.90
2018-12-29T09:23:21.153Z,16.60
2018-12-29T09:24:25.852Z,17.00
2018-12-29T09:25:32.529Z,16.90
2018-12-29T09:26:39.285Z,17.60
2018-12-29T09:27:45.950Z,17.30
2018-12-29T09:28:53.224Z,15.80
2018-12-29T09:29:59.783Z,15.70
2018-12-29T09:31:07.058Z,18.00
2018-12-29T09:32:13.810Z,16.20
2018-12-29T09:33:21.758Z,17.00
2018-12-29T09:34:27.452Z,17.10
2018-12-29T09:35:34.636Z,17.80
2018-12-29T09:36:41.329Z,16.70
2018-12-29T09:37:48.565Z,18.50
2018-12-29T09:38:55.253Z,18.20
2018-12-29T09:40:02.397Z,16.90
2018-12-29T09:41:09.273Z,16.60
2018-12-29T09:42:16.037Z,17.10
2018-12-29T09:43:23.365Z,17.80
2018-12-29T09:44:29.957Z,16.20
2018-12-29T09:45:37.260Z,17.00
2018-12-29T09:46:43.804Z,16.50
2018-12-29T09:47:51.088Z,16.60
2018-12-29T09:48:57.696Z,16.80
2018-12-29T09:50:04.930Z,18.00
2018-12-29T09:51:11.704Z,16.60
2018-12-29T09:52:18.784Z,17.90
2018-12-29T09:53:25.912Z,16.60
2018-12-29T09:54:33.064Z,16.50
2018-12-29T09:55:40.285Z,17.10
2018-12-29T09:56:47.485Z,16.70
2018-12-29T09:57:54.719Z,17.80
2018-12-29T09:59:01.019Z,18.90
2018-12-29T10:00:08.225Z,16.10
2018-12-29T10:01:14.841Z,17.30
2018-12-29T10:02:22.108Z,17.20
2018-12-29T10:03:29.412Z,16.70
2018-12-29T10:04:35.560Z,17.10
2018-12-29T10:05:42.197Z,16.60
2018-12-29T10:06:49.381Z,17.20
2018-12-29T10:07:56.008Z,17.00
2018-12-29T10:09:03.109Z,17.20
2018-12-29T10:10:10.073Z,18.10
2018-12-29T10:11:16.697Z,16.30
2018-12-29T10:12:24.031Z,17.30
2018-12-29T10:13:30.682Z,17.60
2018-12-29T10:14:37.988Z,17.20
2018-12-29T10:15:44.624Z,16.70
2018-12-29T10:16:51.899Z,17.50
2018-12-29T10:17:58.560Z,16.30
2018-12-29T10:19:05.844Z,17.70
2018-12-29T10:20:12.612Z,16.80
2018-12-29T10:21:19.264Z,16.10
2018-12-29T10:22:26.693Z,16.50
2018-12-29T10:23:33.415Z,17.00
2018-12-29T10:24:40.145Z,17.70
2018-12-29T10:25:46.850Z,17.50
2018-12-29T10:26:53.625Z,17.20
2018-12-29T10:28:00.308Z,18.10
2018-12-29T10:29:07.665Z,16.90
2018-12-29T10:30:14.320Z,16.40
2018-12-29T10:31:21.086Z,17.90
2018-12-29T10:32:27.746Z,17.90
2018-12-29T10:33:34.612Z,17.00
2018-12-29T10:34:41.181Z,16.70
2018-12-29T10:35:48.328Z,17.30
2018-12-29T10:36:55.433Z,16.80
2018-12-29T10:38:02.281Z,17.10
2018-12-29T10:39:08.825Z,18.10
2018-12-29T10:40:16.092Z,17.20
2018-12-29T10:41:22.906Z,18.90
2018-12-29T10:42:30.143Z,17.90
2018-12-29T10:43:36.869Z,17.30
2018-12-29T10:44:43.450Z,18.90
2018-12-29T10:45:50.654Z,18.30
2018-12-29T10:46:57.308Z,17.90
2018-12-29T10:48:04.484Z,18.30
2018-12-29T10:49:11.169Z,17.30
2018-12-29T10:50:18.470Z,17.30
2018-12-29T10:51:25.342Z,16.60
2018-12-29T10:52:31.972Z,18.30
2018-12-29T10:53:38.729Z,18.40
2018-12-29T10:54:45.408Z,17.90
2018-12-29T10:55:52.149Z,18.10
2018-12-29T10:56:59.020Z,18.20
2018-12-29T10:58:05.786Z,18.30
2018-12-29T10:59:12.364Z,18.80
2018-12-29T11:00:19.552Z,18.10
2018-12-29T11:01:26.192Z,19.30
2018-12-29T11:02:33.356Z,18.30
2018-12-29T11:03:40.573Z,19.30
2018-12-29T11:04:47.208Z,19.00
2018-12-29T11:05:54.442Z,18.90
2018-12-29T11:07:01.068Z,18.20
2018-12-29T11:08:08.310Z,19.70
2018-12-29T11:09:15.016Z,19.50
2018-12-29T11:10:22.264Z,18.70
2018-12-29T11:11:28.873Z,17.20
2018-12-29T11:12:36.199Z,18.70
2018-12-29T11:13:42.951Z,19.40
2018-12-29T11:14:49.816Z,19.10
2018-12-29T11:15:56.412Z,20.90
2018-12-29T11:17:03.573Z,20.60
2018-12-29T11:18:10.210Z,19.70
2018-12-29T11:19:17.399Z,19.30
2018-12-29T11:20:24.162Z,18.80
2018-12-29T11:21:30.736Z,19.30
2018-12-29T11:22:37.916Z,19.20
2018-12-29T11:23:44.739Z,20.60
2018-12-29T11:24:51.632Z,20.10
2018-12-29T11:25:58.311Z,19.50
2018-12-29T11:27:05.006Z,20.70
2018-12-29T11:28:11.730Z,19.90
2018-12-29T11:29:18.540Z,19.40
2018-12-29T11:30:25.691Z,18.40
2018-12-29T11:31:32.477Z,18.80
2018-12-29T11:32:39.277Z,20.00
2018-12-29T11:33:46.088Z,21.00
2018-12-29T11:34:53.036Z,21.30
2018-12-29T11:35:59.940Z,21.10
2018-12-29T11:37:06.973Z,20.60
2018-12-29T11:38:13.752Z,21.60
2018-12-29T11:39:20.502Z,20.20
2018-12-29T11:40:27.169Z,20.80
2018-12-29T11:41:33.857Z,21.90
2018-12-29T11:42:40.419Z,20.50
2018-12-29T11:43:47.560Z,21.90
2018-12-29T11:44:54.833Z,21.20
2018-12-29T11:46:01.588Z,20.70
2018-12-29T11:47:08.904Z,21.20
2018-12-29T11:48:15.564Z,21.10
2018-12-29T11:49:22.723Z,21.00
2018-12-29T11:50:29.376Z,20.80
2018-12-29T11:51:36.676Z,21.00
2018-12-29T11:52:43.429Z,20.30
2018-12-29T11:53:50.649Z,21.30
2018-12-29T11:54:57.272Z,20.30
2018-12-29T11:56:04.536Z,21.30
2018-12-29T11:57:11.156Z,22.00
2018-12-29T11:58:18.236Z,21.10
2018-12-29T11:59:25.440Z,20.40
2018-12-29T12:00:32.119Z,20.30
2018-12-29T12:01:38.893Z,19.70
2018-12-29T12:02:45.545Z,20.30
2018-12-29T12:03:52.293Z,20.00
2018-12-29T12:04:58.972Z,19.10
2018-12-29T12:06:06.228Z,19.20
2018-12-29T12:07:12.908Z,20.30
2018-12-29T12:08:19.668Z,19.30
2018-12-29T12:09:26.240Z,20.80
2018-12-29T12:10:33.379Z,20.10
2018-12-29T12:11:40.522Z,19.10
2018-12-29T12:12:47.748Z,20.20
2018-12-29T12:13:54.504Z,19.30
2018-12-29T12:15:01.289Z,20.60
2018-12-29T12:16:08.051Z,19.50
2018-12-29T12:17:14.716Z,20.40
2018-12-29T12:18:22.093Z,20.20
2018-12-29T12:19:28.840Z,19.80
2018-12-29T12:20:35.616Z,21.20
2018-12-29T12:21:42.287Z,20.50
2018-12-29T12:22:48.860Z,21.40
2018-12-29T12:23:56.010Z,22.10
2018-12-29T12:25:03.305Z,20.70
2018-12-29T12:26:12.038Z,22.80
2018-12-29T12:27:17.956Z,22.50
2018-12-29T12:28:24.365Z,22.60
2018-12-29T12:29:32.867Z,22.80
2018-12-29T12:30:38.384Z,20.90
2018-12-29T12:31:45.778Z,20.50
2018-12-29T12:32:53.549Z,21.70
2018-12-29T12:33:59.286Z,20.90
2018-12-29T12:35:05.824Z,20.90
2018-12-29T12:36:12.471Z,20.60
2018-12-29T12:37:19.660Z,20.90
2018-12-29T12:38:26.278Z,21.60
2018-12-29T12:39:33.393Z,21.70
2018-12-29T12:40:40.903Z,20.80
2018-12-29T12:41:47.548Z,23.10
2018-12-29T12:42:55.026Z,22.10
2018-12-29T12:44:01.661Z,20.70
2018-12-29T12:45:08.857Z,20.60
2018-12-29T12:46:15.612Z,20.60
2018-12-29T12:47:22.384Z,21.40
2018-12-29T12:48:28.983Z,24.40
2018-12-29T12:49:36.333Z,22.50
2018-12-29T12:50:42.996Z,21.30
2018-12-29T12:51:49.768Z,20.70
2018-12-29T12:52:56.528Z,19.60
2018-12-29T12:54:03.280Z,19.50
2018-12-29T12:55:10.100Z,19.40
2018-12-29T12:56:16.928Z,19.90
2018-12-29T12:57:23.688Z,19.50
2018-12-29T12:58:30.372Z,20.20
2018-12-29T12:59:37.213Z,18.50
2018-12-29T13:00:43.985Z,19.60
2018-12-29T13:01:50.752Z,20.00
2018-12-29T13:02:57.422Z,20.70
2018-12-29T13:04:04.171Z,21.20
2018-12-29T13:05:10.831Z,20.60
2018-12-29T13:06:18.025Z,20.20
2018-12-29T13:07:24.780Z,20.20
2018-12-29T13:08:31.549Z,20.10
2018-12-29T13:09:38.400Z,19.90
2018-12-29T13:10:45.270Z,19.70
2018-12-29T13:11:52.040Z,18.90
2018-12-29T13:12:58.691Z,19.80
2018-12-29T13:14:05.984Z,20.10
2018-12-29T13:15:12.746Z,20.10
2018-12-29T13:16:20.020Z,19.10
2018-12-29T13:17:26.676Z,19.60
2018-12-29T13:18:33.872Z,19.40
2018-12-29T13:19:40.516Z,19.80
2018-12-29T13:20:47.586Z,20.20
2018-12-29T13:21:54.356Z,20.40
2018-12-29T13:23:01.017Z,18.60
2018-12-29T13:24:08.309Z,20.70
2018-12-29T13:25:15.155Z,19.50
2018-12-29T13:26:21.932Z,18.40
2018-12-29T13:27:28.586Z,19.80
2018-12-29T13:28:35.360Z,19.30
2018-12-29T13:29:42.109Z,19.50
2018-12-29T13:30:48.888Z,20.30
2018-12-29T13:31:55.664Z,18.60
2018-12-29T13:33:02.308Z,20.20
2018-12-29T13:34:09.009Z,19.70
2018-12-29T13:35:15.940Z,18.90
2018-12-29T13:36:22.660Z,20.20
2018-12-29T13:37:29.433Z,19.30
2018-12-29T13:38:36.278Z,19.50
2018-12-29T13:39:43.120Z,19.30
2018-12-29T13:40:49.865Z,18.90
2018-12-29T13:41:56.598Z,18.80
2018-12-29T13:43:03.836Z,18.90
2018-12-29T13:44:10.657Z,18.90
2018-12-29T13:45:17.409Z,19.90
2018-12-29T13:46:28.868Z,18.50
2018-12-29T13:47:31.087Z,19.00
2018-12-29T13:48:37.858Z,19.10
2018-12-29T13:49:44.624Z,18.00
2018-12-29T13:50:51.465Z,18.90
2018-12-29T13:51:58.185Z,17.90
2018-12-29T13:53:05.003Z,18.30
2018-12-29T13:54:11.557Z,18.30
2018-12-29T13:55:18.765Z,18.80
2018-12-29T13:56:25.908Z,19.40
2018-12-29T13:57:33.065Z,18.80
2018-12-29T13:58:40.256Z,17.90
2018-12-29T13:59:46.948Z,19.90
2018-12-29T14:00:53.665Z,18.60
2018-12-29T14:02:00.356Z,19.00
2018-12-29T14:03:07.164Z,18.10
2018-12-29T14:04:13.724Z,18.30
2018-12-29T14:05:20.987Z,18.50
2018-12-29T14:06:27.717Z,16.80
2018-12-29T14:07:34.477Z,16.90
2018-12-29T14:08:41.149Z,18.60
2018-12-29T14:09:47.809Z,16.50
2018-12-29T14:10:54.598Z,17.40
2018-12-29T14:12:01.325Z,18.20
2018-12-29T14:13:08.104Z,18.60
2018-12-29T14:14:14.922Z,16.80
2018-12-29T14:15:21.769Z,17.80
2018-12-29T14:16:28.501Z,19.10
2018-12-29T14:17:35.271Z,17.90
2018-12-29T14:18:41.836Z,17.20
2018-12-29T14:19:49.003Z,18.00
2018-12-29T14:20:56.191Z,17.00